createdAt,value
2019-03-20T00:00:28.896Z,28.00
2019-03-20T00:03:00.114Z,28.10
2019-03-20T00:05:34.045Z,28.00
2019-03-20T00:08:05.231Z,28.10
2019-03-20T00:10:36.606Z,28.10
2019-03-20T00:13:07.678Z,28.20
2019-03-20T00:15:38.900Z,28.20
2019-03-20T00:18:09.926Z,28.20
2019-03-20T00:20:40.743Z,28.30
2019-03-20T00:23:11.974Z,28.30
2019-03-20T00:25:47.818Z,28.20
2019-03-20T00:28:17.841Z,28.30
2019-03-20T00:30:49.153Z,28.30
2019-03-20T00:33:21.735Z,28.40
2019-03-20T00:35:52.944Z,28.40
2019-03-20T00:38:23.832Z,28.40
2019-03-20T00:40:58.126Z,28.50
2019-03-20T00:43:29.082Z,28.50
2019-03-20T00:46:00.185Z,28.50
2019-03-20T00:48:32.631Z,28.60
2019-03-20T00:53:57.020Z,28.70
2019-03-20T00:56:28.431Z,28.70
2019-03-20T00:59:00.747Z,28.80
2019-03-20T01:01:39.857Z,28.90
2019-03-20T01:04:10.556Z,28.90
2019-03-20T01:10:59.016Z,29.10
2019-03-20T01:13:30.646Z,29.20
2019-03-20T01:16:02.319Z,29.30
2019-03-20T01:18:37.341Z,29.30
2019-03-20T01:21:08.797Z,29.40
2019-03-20T01:23:39.953Z,29.40
2019-03-20T01:26:18.620Z,29.50
2019-03-20T01:28:50.525Z,29.50
2019-03-20T01:31:21.853Z,29.60
2019-03-20T01:33:54.962Z,29.60
2019-03-20T01:36:26.325Z,29.70
2019-03-20T01:39:00.094Z,29.80
2019-03-20T01:41:38.059Z,29.80
2019-03-20T01:44:04.783Z,29.90
2019-03-20T01:46:36.428Z,30.00
2019-03-20T01:49:10.177Z,30.00
2019-03-20T01:51:44.653Z,30.10
2019-03-20T01:54:17.234Z,30.10
2019-03-20T01:56:48.493Z,30.20
2019-03-20T01:59:22.545Z,30.30
2019-03-20T02:01:54.029Z,30.30
2019-03-20T02:04:26.985Z,30.30
2019-03-20T02:06:58.580Z,30.40
2019-03-20T02:09:31.479Z,30.50
2019-03-20T02:12:02.441Z,30.50
2019-03-20T02:14:42.986Z,30.60
2019-03-20T02:17:14.162Z,30.70
2019-03-20T02:19:45.207Z,30.70
2019-03-20T02:22:17.476Z,30.80
2019-03-20T02:24:48.761Z,30.80
2019-03-20T02:27:19.910Z,30.80
2019-03-20T02:29:52.408Z,30.80
2019-03-20T02:32:25.490Z,30.90
2019-03-20T02:34:56.807Z,30.90
2019-03-20T02:37:27.903Z,31.00
2019-03-20T02:39:59.138Z,31.10
2019-03-20T02:42:30.077Z,31.10
2019-03-20T02:45:02.206Z,31.20
2019-03-20T02:47:33.377Z,31.20
2019-03-20T02:50:04.267Z,31.30
2019-03-20T02:52:35.407Z,31.30
2019-03-20T02:55:10.296Z,31.30
2019-03-20T02:57:41.164Z,31.40
2019-03-20T03:00:17.465Z,31.40
2019-03-20T03:02:51.613Z,31.50
2019-03-20T03:05:22.811Z,31.50
2019-03-20T03:07:53.947Z,31.60
2019-03-20T03:10:26.785Z,31.60
2019-03-20T03:12:59.499Z,31.70
2019-03-20T03:15:31.146Z,31.80
2019-03-20T03:18:05.127Z,31.80
2019-03-20T03:20:38.173Z,31.90
2019-03-20T03:29:42.131Z,32.10
2019-03-20T03:35:03.066Z,32.30
2019-03-20T03:37:34.205Z,32.40
2019-03-20T03:40:08.660Z,32.50
2019-03-20T03:42:40.837Z,32.50
2019-03-20T03:45:14.068Z,32.60
2019-03-20T03:47:48.060Z,32.60
2019-03-20T03:50:19.011Z,32.70
2019-03-20T03:52:50.116Z,32.80
2019-03-20T03:59:05.262Z,32.80
2019-03-20T04:01:43.568Z,32.90
2019-03-20T04:04:28.573Z,33.00
2019-03-20T04:06:59.757Z,33.00
2019-03-20T04:09:35.166Z,33.10
2019-03-20T04:12:09.166Z,33.20
2019-03-20T04:14:41.428Z,33.30
2019-03-20T04:17:14.999Z,33.40
2019-03-20T04:19:45.954Z,33.40
2019-03-20T04:22:18.536Z,33.40
2019-03-20T04:24:50.532Z,33.40
2019-03-20T04:27:21.679Z,33.50
2019-03-20T04:29:52.781Z,33.60
2019-03-20T04:32:23.892Z,33.70
2019-03-20T04:34:54.765Z,33.70
2019-03-20T04:37:28.699Z,33.80
2019-03-20T04:40:02.814Z,34.00
2019-03-20T04:42:34.657Z,34.00
2019-03-20T04:45:08.491Z,34.00
2019-03-20T04:47:39.972Z,34.10
2019-03-20T04:56:25.131Z,34.30
2019-03-20T04:58:57.264Z,34.40
2019-03-20T05:01:30.119Z,34.50
2019-03-20T05:04:01.214Z,34.50
2019-03-20T05:06:32.961Z,34.50
2019-03-20T05:09:05.687Z,34.60
2019-03-20T05:11:36.770Z,34.70
2019-03-20T05:14:12.515Z,34.70
2019-03-20T05:16:44.835Z,34.80
2019-03-20T05:19:16.421Z,34.80
2019-03-20T05:21:47.498Z,34.80
2019-03-20T05:24:19.857Z,34.90
2019-03-20T05:26:56.177Z,35.00
2019-03-20T05:29:29.193Z,35.00
2019-03-20T05:32:01.681Z,35.10
2019-03-20T05:34:36.624Z,35.10
2019-03-20T05:37:10.734Z,35.10
2019-03-20T05:39:40.675Z,35.10
2019-03-20T05:42:12.784Z,35.10
2019-03-20T05:44:43.863Z,35.20
2019-03-20T05:47:15.103Z,35.20
2019-03-20T05:49:46.168Z,35.20
2019-03-20T05:52:17.263Z,35.30
2019-03-20T05:54:48.370Z,35.30
2019-03-20T05:57:20.522Z,35.40
2019-03-20T05:59:54.520Z,35.50
2019-03-20T06:02:27.103Z,35.40
2019-03-20T06:05:05.078Z,35.50
2019-03-20T06:07:36.009Z,35.50
2019-03-20T06:10:09.552Z,35.50
2019-03-20T06:12:41.483Z,35.50
2019-03-20T06:15:12.802Z,35.50
2019-03-20T06:17:46.607Z,35.50
2019-03-20T06:20:17.114Z,35.50
2019-03-20T06:22:57.367Z,35.50
2019-03-20T06:25:28.709Z,35.40
2019-03-20T06:27:59.839Z,35.40
2019-03-20T06:30:31.840Z,35.40
2019-03-20T06:39:31.612Z,35.50
2019-03-20T06:42:04.979Z,35.50
2019-03-20T06:44:36.107Z,35.60
2019-03-20T06:47:07.243Z,35.70
2019-03-20T06:49:38.950Z,35.70
2019-03-20T06:52:11.700Z,35.80
2019-03-20T06:54:43.209Z,35.80
2019-03-20T06:57:15.899Z,35.80
2019-03-20T06:59:52.639Z,35.80
2019-03-20T07:02:23.878Z,35.80
2019-03-20T07:05:00.354Z,35.80
2019-03-20T07:07:43.599Z,35.90
2019-03-20T07:10:08.646Z,35.90
2019-03-20T07:12:39.686Z,36.00
2019-03-20T07:15:11.544Z,36.10
2019-03-20T07:17:42.575Z,36.20
2019-03-20T07:20:15.866Z,36.20
2019-03-20T07:22:46.479Z,36.20
2019-03-20T07:25:17.246Z,36.30
2019-03-20T07:27:48.601Z,36.30
2019-03-20T07:30:20.710Z,36.30
2019-03-20T07:32:52.747Z,36.30
2019-03-20T07:35:27.720Z,36.30
2019-03-20T07:38:04.072Z,36.40
2019-03-20T07:40:34.142Z,36.40
2019-03-20T07:43:09.099Z,36.40
2019-03-20T07:45:38.064Z,36.30
2019-03-20T07:48:21.519Z,36.30
2019-03-20T07:50:46.489Z,36.30
2019-03-20T07:53:18.485Z,36.30
2019-03-20T07:55:49.729Z,36.40
2019-03-20T07:58:20.700Z,36.50
2019-03-20T08:00:52.475Z,36.50
2019-03-20T08:03:23.989Z,36.50
2019-03-20T08:05:54.993Z,36.50
2019-03-20T08:11:21.124Z,36.50
2019-03-20T08:13:52.196Z,36.40
2019-03-20T08:16:24.407Z,36.30
2019-03-20T08:18:57.532Z,36.20
2019-03-20T08:21:28.319Z,36.20
2019-03-20T08:24:01.027Z,36.20
2019-03-20T08:26:32.264Z,36.20
2019-03-20T08:29:03.274Z,36.20
2019-03-20T08:31:34.332Z,36.10
2019-03-20T08:34:06.429Z,36.10
2019-03-20T08:36:38.495Z,36.10
2019-03-20T08:39:15.740Z,36.10
2019-03-20T08:41:49.658Z,36.10
2019-03-20T08:44:21.125Z,36.10
2019-03-20T08:46:53.554Z,36.00
2019-03-20T08:49:24.581Z,36.00
2019-03-20T08:51:55.852Z,35.90
2019-03-20T08:54:27.248Z,35.80
2019-03-20T08:57:14.594Z,35.70
2019-03-20T08:59:46.062Z,35.60
2019-03-20T09:02:24.000Z,35.50
2019-03-20T09:04:56.404Z,35.50
2019-03-20T09:07:28.365Z,35.40
2019-03-20T09:09:59.309Z,35.30
2019-03-20T09:12:31.796Z,35.20
2019-03-20T09:15:02.710Z,35.20
2019-03-20T09:17:33.718Z,35.20
2019-03-20T09:20:14.333Z,35.10
2019-03-20T09:22:47.440Z,35.10
2019-03-20T09:25:21.065Z,35.00
2019-03-20T09:27:52.942Z,35.00
2019-03-20T09:30:26.096Z,35.00
2019-03-20T09:32:58.041Z,35.10
2019-03-20T09:35:29.770Z,35.10
2019-03-20T09:38:01.183Z,35.10
2019-03-20T09:40:32.262Z,35.20
2019-03-20T09:43:04.910Z,35.10
2019-03-20T09:45:35.737Z,35.20
2019-03-20T09:48:07.622Z,35.20
2019-03-20T09:50:40.610Z,35.20
2019-03-20T09:53:12.929Z,35.10
2019-03-20T09:55:44.358Z,35.10
2019-03-20T09:58:17.252Z,35.10
2019-03-20T10:00:48.470Z,35.10
2019-03-20T10:15:17.563Z,35.00
2019-03-20T10:17:48.741Z,35.00
2019-03-20T10:20:21.561Z,35.00
2019-03-20T10:22:52.539Z,34.90
2019-03-20T10:25:23.464Z,34.90
2019-03-20T10:27:54.507Z,34.90
2019-03-20T10:30:27.436Z,34.80
2019-03-20T10:32:58.441Z,34.80
2019-03-20T10:35:29.916Z,34.70
2019-03-20T10:38:00.706Z,34.70
2019-03-20T10:40:34.253Z,34.70
2019-03-20T10:43:05.212Z,34.60
2019-03-20T10:45:36.366Z,34.60
2019-03-20T10:48:07.337Z,34.60
2019-03-20T10:50:38.133Z,34.50
2019-03-20T10:53:09.331Z,34.50
2019-03-20T10:55:42.677Z,34.40
2019-03-20T10:58:13.711Z,34.40
2019-03-20T11:00:46.455Z,34.40
2019-03-20T11:03:16.983Z,34.30
2019-03-20T11:05:48.240Z,34.20
2019-03-20T11:08:19.315Z,34.20
2019-03-20T11:10:50.689Z,34.10
2019-03-20T11:13:21.724Z,34.10
2019-03-20T11:15:53.367Z,34.10
2019-03-20T11:18:24.317Z,34.00
2019-03-20T11:20:55.137Z,34.00
2019-03-20T11:23:26.135Z,33.90
2019-03-20T11:25:56.999Z,33.90
2019-03-20T11:28:28.011Z,33.90
2019-03-20T11:31:00.402Z,33.80
2019-03-20T11:33:31.494Z,33.80
2019-03-20T11:36:02.366Z,33.70
2019-03-20T11:38:33.145Z,33.70
2019-03-20T11:41:04.235Z,33.70
2019-03-20T11:43:35.049Z,33.60
2019-03-20T11:46:09.091Z,33.50
2019-03-20T11:48:40.037Z,33.50
2019-03-20T11:51:12.853Z,33.40
2019-03-20T11:53:43.915Z,33.30
2019-03-20T11:56:15.117Z,33.30
2019-03-20T11:58:47.228Z,33.20
2019-03-20T12:01:18.424Z,33.10
2019-03-20T12:03:49.465Z,33.10
2019-03-20T12:06:20.726Z,33.10
2019-03-20T12:08:51.541Z,33.00
2019-03-20T12:11:22.448Z,33.00
2019-03-20T12:13:53.342Z,33.00
2019-03-20T12:16:24.537Z,32.90
2019-03-20T12:18:55.237Z,32.90
2019-03-20T12:21:26.300Z,32.90
2019-03-20T12:23:57.505Z,32.80
2019-03-20T12:26:28.516Z,32.80
2019-03-20T12:29:01.871Z,32.80
2019-03-20T12:31:32.794Z,32.70
2019-03-20T12:34:03.591Z,32.70
2019-03-20T12:36:34.742Z,32.70
2019-03-20T12:39:06.655Z,32.70
2019-03-20T12:41:38.000Z,32.60
2019-03-20T12:44:08.890Z,32.60
2019-03-20T12:46:41.697Z,32.50
2019-03-20T12:49:12.321Z,32.50
2019-03-20T12:51:43.277Z,32.50
2019-03-20T12:54:14.185Z,32.50
2019-03-20T12:56:45.112Z,32.40
2019-03-20T12:59:16.013Z,32.40
2019-03-20T13:01:46.883Z,32.40
2019-03-20T13:04:18.035Z,32.30
2019-03-20T13:06:49.035Z,32.30
2019-03-20T13:09:19.876Z,32.30
2019-03-20T13:11:53.618Z,32.20
2019-03-20T13:14:24.624Z,32.20
2019-03-20T13:16:55.546Z,32.20
2019-03-20T13:19:26.759Z,32.20
2019-03-20T13:21:57.706Z,32.20
2019-03-20T13:24:28.763Z,32.20
2019-03-20T13:26:59.914Z,32.20
2019-03-20T13:29:30.656Z,32.20
2019-03-20T13:32:03.630Z,32.20
2019-03-20T13:34:33.704Z,32.20
2019-03-20T13:37:04.624Z,32.20
2019-03-20T13:39:35.730Z,32.20
2019-03-20T13:42:06.930Z,32.20
2019-03-20T13:44:37.959Z,32.30
2019-03-20T13:47:09.104Z,32.30
2019-03-20T13:49:40.912Z,32.30
2019-03-20T13:52:11.947Z,32.30
2019-03-20T13:54:42.820Z,32.30
2019-03-20T13:57:13.734Z,32.30
2019-03-20T13:59:44.431Z,32.30
2019-03-20T14:02:15.399Z,32.30
2019-03-20T14:04:46.511Z,32.30
2019-03-20T14:07:17.197Z,32.20
2019-03-20T14:09:48.291Z,32.20
2019-03-20T14:12:19.421Z,32.20
2019-03-20T14:14:50.296Z,32.10
2019-03-20T14:17:21.491Z,32.10
2019-03-20T14:19:52.168Z,32.00
2019-03-20T14:22:23.311Z,32.00
2019-03-20T14:24:54.252Z,32.00
2019-03-20T14:27:25.286Z,32.00
2019-03-20T14:29:56.261Z,32.00
2019-03-20T14:32:27.044Z,31.90
2019-03-20T14:34:57.878Z,31.90
2019-03-20T14:37:29.169Z,31.90
2019-03-20T14:40:00.102Z,31.90
2019-03-20T14:42:31.015Z,31.80
2019-03-20T14:45:02.191Z,31.80
2019-03-20T14:47:41.896Z,31.80
2019-03-20T14:50:06.913Z,31.80
2019-03-20T14:52:38.128Z,31.70
2019-03-20T14:55:11.618Z,31.70
2019-03-20T14:57:43.053Z,31.70
2019-03-20T15:00:16.757Z,31.60
2019-03-20T15:02:47.991Z,31.60
2019-03-20T15:05:19.130Z,31.60
2019-03-20T15:07:50.221Z,31.50
2019-03-20T15:10:23.670Z,31.50
2019-03-20T15:12:55.551Z,31.50
2019-03-20T15:15:29.161Z,31.50
2019-03-20T15:17:59.916Z,31.50
2019-03-20T15:20:30.431Z,31.40
2019-03-20T15:23:01.775Z,31.40
2019-03-20T15:25:35.475Z,31.40
2019-03-20T15:28:06.536Z,31.40
2019-03-20T15:30:37.688Z,31.40
2019-03-20T15:33:08.944Z,31.30
2019-03-20T15:35:40.012Z,31.30
2019-03-20T15:38:10.948Z,31.30
2019-03-20T15:40:42.055Z,31.30
2019-03-20T15:43:14.129Z,31.20
2019-03-20T15:45:45.130Z,31.20
2019-03-20T15:48:15.891Z,31.20
2019-03-20T15:50:46.774Z,31.10
2019-03-20T15:53:17.770Z,31.10
2019-03-20T15:55:48.914Z,31.10
2019-03-20T15:58:19.985Z,31.10
2019-03-20T16:00:50.976Z,31.00
2019-03-20T16:03:24.392Z,31.00
2019-03-20T16:05:55.513Z,31.00
2019-03-20T16:08:26.553Z,30.90
2019-03-20T16:11:06.226Z,30.80
2019-03-20T16:13:29.779Z,30.80
2019-03-20T16:16:00.673Z,30.70
2019-03-20T16:18:31.743Z,30.60
2019-03-20T16:21:03.157Z,30.60
2019-03-20T16:23:34.154Z,30.50
2019-03-20T16:26:05.591Z,30.40
2019-03-20T16:28:36.915Z,30.40
2019-03-20T16:31:07.940Z,30.40
2019-03-20T16:33:39.248Z,30.40
2019-03-20T16:36:10.284Z,30.40
2019-03-20T16:38:41.242Z,30.30
2019-03-20T16:41:16.816Z,30.30
2019-03-20T16:43:44.535Z,30.30
2019-03-20T16:46:15.546Z,30.30
2019-03-20T16:48:46.692Z,30.20
2019-03-20T16:51:17.780Z,30.20
2019-03-20T16:53:49.031Z,30.20
2019-03-20T16:56:20.189Z,30.20
2019-03-20T16:58:54.242Z,30.10
2019-03-20T17:01:25.380Z,30.10
2019-03-20T17:03:56.374Z,30.00
2019-03-20T17:06:27.141Z,30.10
2019-03-20T17:08:58.170Z,30.00
2019-03-20T17:11:38.114Z,30.00
2019-03-20T17:14:01.313Z,30.00
2019-03-20T17:16:32.068Z,30.00
2019-03-20T17:19:02.946Z,30.00
2019-03-20T17:21:34.368Z,30.00
2019-03-20T17:24:05.453Z,30.00
2019-03-20T17:26:36.742Z,30.00
2019-03-20T17:29:09.160Z,30.00
2019-03-20T17:31:40.484Z,30.00
2019-03-20T17:34:11.846Z,30.00
2019-03-20T17:36:42.817Z,30.00
2019-03-20T17:39:13.968Z,30.00
2019-03-20T17:41:47.444Z,30.00
2019-03-20T17:44:18.568Z,30.00
2019-03-20T17:46:49.379Z,30.00
2019-03-20T17:49:20.255Z,30.00
2019-03-20T17:51:51.246Z,30.00
2019-03-20T17:54:22.391Z,30.00
2019-03-20T17:56:53.176Z,30.00
2019-03-20T17:59:24.456Z,30.00
2019-03-20T18:01:55.346Z,30.00
2019-03-20T18:04:26.594Z,30.00
2019-03-20T18:06:57.504Z,30.00
2019-03-20T18:09:31.104Z,30.00
2019-03-20T18:12:02.354Z,30.00
2019-03-20T18:14:33.261Z,29.90
2019-03-20T18:17:04.523Z,29.90
2019-03-20T18:19:35.569Z,29.90
2019-03-20T18:22:06.599Z,29.80
2019-03-20T18:24:37.433Z,29.70
2019-03-20T18:27:08.526Z,29.70
2019-03-20T18:29:39.535Z,29.60
2019-03-20T18:32:10.639Z,29.60
2019-03-20T18:34:41.665Z,29.60
2019-03-20T18:37:13.368Z,29.50
2019-03-20T18:39:44.340Z,29.50
2019-03-20T18:42:15.454Z,29.50
2019-03-20T18:44:46.487Z,29.40
2019-03-20T18:47:17.535Z,29.40
2019-03-20T18:49:48.321Z,29.40
2019-03-20T18:52:19.368Z,29.40
2019-03-20T18:54:50.323Z,29.40
2019-03-20T18:57:21.366Z,29.30
2019-03-20T18:59:52.400Z,29.30
2019-03-20T19:02:23.683Z,29.20
2019-03-20T19:04:55.706Z,29.20
2019-03-20T19:07:27.051Z,29.20
2019-03-20T19:09:58.237Z,29.20
2019-03-20T19:12:29.668Z,29.20
2019-03-20T19:15:00.774Z,29.20
2019-03-20T19:17:31.924Z,29.20
2019-03-20T19:20:02.875Z,29.10
2019-03-20T19:22:33.710Z,29.10
2019-03-20T19:25:04.984Z,29.10
2019-03-20T19:27:36.095Z,29.20
2019-03-20T19:30:09.494Z,29.10
2019-03-20T19:32:40.841Z,29.10
2019-03-20T19:35:13.222Z,29.10
2019-03-20T19:37:44.179Z,29.00
2019-03-20T19:40:17.446Z,29.00
2019-03-20T19:42:48.816Z,29.00
2019-03-20T19:45:20.537Z,28.90
2019-03-20T19:47:51.557Z,28.90
2019-03-20T19:50:23.914Z,28.90
2019-03-20T19:52:55.062Z,28.90
2019-03-20T19:55:25.956Z,28.90
2019-03-20T19:57:56.932Z,28.80
2019-03-20T20:00:29.122Z,28.80
2019-03-20T20:03:00.132Z,28.80
2019-03-20T20:05:33.707Z,28.80
2019-03-20T20:08:04.717Z,28.80
2019-03-20T20:10:35.994Z,28.80
2019-03-20T20:13:07.277Z,28.80
2019-03-20T20:15:38.409Z,28.80
2019-03-20T20:18:09.431Z,28.80
2019-03-20T20:20:41.976Z,28.80
2019-03-20T20:23:12.764Z,28.80
2019-03-20T20:25:43.621Z,28.80
2019-03-20T20:28:14.835Z,28.80
2019-03-20T20:30:46.041Z,28.80
2019-03-20T20:33:16.879Z,28.80
2019-03-20T20:35:48.006Z,28.80
2019-03-20T20:38:18.943Z,28.80
2019-03-20T20:40:49.784Z,28.80
2019-03-20T20:43:20.841Z,28.80
2019-03-20T20:45:52.056Z,28.80
2019-03-20T20:48:22.992Z,28.80
2019-03-20T20:50:54.056Z,28.80
2019-03-20T20:53:25.707Z,28.80
2019-03-20T20:55:56.878Z,28.80
2019-03-20T20:58:29.308Z,28.80
2019-03-20T21:01:00.083Z,28.80
2019-03-20T21:03:31.220Z,28.80
2019-03-20T21:06:02.360Z,28.80
2019-03-20T21:08:33.329Z,28.80
2019-03-20T21:11:04.317Z,28.80
2019-03-20T21:13:35.617Z,28.70
2019-03-20T21:16:06.771Z,28.70
2019-03-20T21:18:40.262Z,28.70
2019-03-20T21:21:11.267Z,28.70
2019-03-20T21:23:44.710Z,28.70
2019-03-20T21:26:18.193Z,28.70
2019-03-20T21:28:51.802Z,28.60
2019-03-20T21:31:25.525Z,28.60
2019-03-20T21:33:58.909Z,28.60
2019-03-20T21:36:32.511Z,28.60
2019-03-20T21:39:03.615Z,28.60
2019-03-20T21:41:37.277Z,28.60
2019-03-20T21:44:10.976Z,28.50
2019-03-20T21:46:44.494Z,28.50
2019-03-20T21:49:15.518Z,28.60
2019-03-20T21:51:46.611Z,28.50
2019-03-20T21:54:19.961Z,28.50
2019-03-20T21:56:53.646Z,28.50
2019-03-20T21:59:27.253Z,28.50
2019-03-20T22:02:00.665Z,28.50
2019-03-20T22:04:31.485Z,28.50
2019-03-20T22:07:04.995Z,28.50
2019-03-20T22:09:38.425Z,28.50
2019-03-20T22:12:12.120Z,28.50
2019-03-20T22:14:45.008Z,28.50
2019-03-20T22:17:18.392Z,28.40
2019-03-20T22:19:51.582Z,28.40
2019-03-20T22:22:24.979Z,28.40
2019-03-20T22:24:58.806Z,28.40
2019-03-20T22:27:32.397Z,28.40
2019-03-20T22:30:03.378Z,28.40
2019-03-20T22:32:36.825Z,28.30
2019-03-20T22:35:10.278Z,28.30
2019-03-20T22:37:41.394Z,28.30
2019-03-20T22:40:14.911Z,28.30
2019-03-20T22:42:48.470Z,28.30
2019-03-20T22:45:21.987Z,28.30
2019-03-20T22:47:55.671Z,28.20
2019-03-20T22:50:29.176Z,28.20
2019-03-20T22:53:02.576Z,28.20
2019-03-20T22:55:36.180Z,28.10
2019-03-20T22:58:09.904Z,28.10
2019-03-20T23:00:41.116Z,28.10
2019-03-20T23:03:14.562Z,28.10
2019-03-20T23:05:45.592Z,28.00
2019-03-20T23:08:17.960Z,28.00
2019-03-20T23:10:51.260Z,28.00
2019-03-20T23:13:22.201Z,28.00
2019-03-20T23:15:53.671Z,28.00
2019-03-20T23:18:25.589Z,27.90
2019-03-20T23:20:56.562Z,27.90
2019-03-20T23:23:27.743Z,27.90
2019-03-20T23:25:58.977Z,27.90
2019-03-20T23:28:29.901Z,27.90
2019-03-20T23:31:00.758Z,27.90
2019-03-20T23:33:31.792Z,27.90
2019-03-20T23:36:02.884Z,27.90
2019-03-20T23:38:35.292Z,27.90
2019-03-20T23:41:07.128Z,28.00
2019-03-20T23:43:39.123Z,27.90
2019-03-20T23:46:10.448Z,27.90
2019-03-20T23:48:44.006Z,27.90
2019-03-20T23:51:18.008Z,27.90
2019-03-20T23:53:51.465Z,27.90
2019-03-20T23:56:22.711Z,27.90
2019-03-20T23:58:53.873Z,27.90
